»·PEaware :: ACA873 EDDF-CYYZ

ACA873 :: EDDF-CYYZ

FLIGHT INFORMATION

Flight Status: Arrived
Operator:
Air Canada
More flights by this operator :: More flights under this callsign
Pilot: Anonymous 14085 (14085)
Aircraft: AIRBUS A330
(A330)
More flights by this aircraft type
Origin: EDDF Frankfurt/Main
Germany
Destination: CYYZ Toronto/Pearson Intl
Canada
More flights between these airports :: More routes between these airports
Route: BIBT3H BIBTI UZ28 SUPUR UL602 MIMVA EMLON NATEB TLA GINGA/M079F340 DORYY/N0455F340 YWK OMTOL MT POLTY IMEBA3
File this flight plan on PilotEdge
Remarks: PBN / A1B1C1D1O1S2 DOF / 170622 REG / N315SB EET / EDUU0010 EDVV0012 EHAA0023 EGTT0046 EGPX0118 EGGX0204 CZQX0336 CZUL0619 CZYZ0759 OPR / ACA RALT / BIKF BGSF RMK / TCAS SIMBRIEF
Altitude:
(Current/Filed)
34,000ft
Speed:
(Current/Filed)
467kts
Departed: 22-Jun-17 09:29 AM
Arrived: 22-Jun-17 05:31 PM
Distance/Time
Traveled:
3423nm/8:02
Distance/Time
To Go:
Arrived

Flight Plot

Page will automatically refresh every two minutes.

Flight plan parsing failed; only flown route is shown


Map Options




Map Legend


Flown Route
Filed Route
Departure Airport
Arrival Airport
Navaid (VOR, NDB)
Fix

Horizontal Profiles

Position Reports

Time Latitude Longitude Heading Altitude Ground
Speed
22-Jun-17 09:25 49.998641 8.526295 358 314ft 0kts
22-Jun-17 09:26 49.998641 8.526295 358 314ft 0kts
22-Jun-17 09:27 49.998641 8.526295 358 314ft 0kts
22-Jun-17 09:28 49.998641 8.526295 358 314ft 0kts
22-Jun-17 09:29 49.998641 8.526295 358 314ft 0kts
22-Jun-17 09:30 49.998641 8.526295 358 314ft 0kts
22-Jun-17 09:31 49.998641 8.526295 358 314ft 0kts
22-Jun-17 09:32 50.007519 8.526163 358 314ft 111kts
22-Jun-17 09:33 50.053228 8.517342 329 1417ft 189kts
22-Jun-17 09:34 50.102372 8.460283 317 2272ft 261kts
22-Jun-17 09:35 50.155181 8.383922 315 3394ft 265kts
22-Jun-17 09:36 50.205592 8.307067 314 3335ft 265kts
22-Jun-17 09:37 50.258647 8.225357 315 3377ft 269kts
22-Jun-17 09:38 50.308212 8.148834 315 3846ft 269kts
22-Jun-17 09:39 50.360840 8.067542 310 5939ft 289kts
22-Jun-17 09:40 50.415458 7.982416 310 8997ft 273kts
22-Jun-17 09:41 50.470467 7.896440 311 10729ft 306kts
22-Jun-17 09:42 50.535627 7.794400 312 11852ft 359kts
22-Jun-17 09:43 50.607246 7.681833 311 14201ft 371kts
22-Jun-17 09:44 50.680920 7.565407 311 16285ft 385kts
22-Jun-17 09:45 50.757237 7.444234 311 18313ft 397kts
22-Jun-17 09:46 50.834377 7.321095 311 20199ft 407kts
22-Jun-17 09:47 50.913103 7.194739 311 21945ft 417kts
22-Jun-17 09:48 50.991676 7.059463 306 23566ft 423kts
22-Jun-17 09:49 51.066190 6.914615 306 25053ft 432kts
22-Jun-17 09:50 51.138229 6.773762 305 26627ft 432kts
22-Jun-17 09:51 51.192332 6.614661 285 27669ft 434kts
22-Jun-17 09:52 51.225479 6.428869 283 28792ft 439kts
22-Jun-17 09:53 51.256051 6.248847 283 30279ft 434kts
22-Jun-17 09:54 51.293522 6.085876 298 31485ft 436kts
22-Jun-17 09:55 51.356360 5.922237 298 32640ft 433kts
22-Jun-17 09:56 51.419300 5.760471 298 33661ft 430kts
22-Jun-17 09:57 51.482798 5.599827 298 33904ft 428kts
22-Jun-17 09:58 51.546314 5.439192 298 33909ft 430kts
22-Jun-17 09:59 51.608615 5.280549 298 33917ft 429kts
22-Jun-17 10:00 51.671715 5.118970 298 33914ft 429kts
22-Jun-17 10:01 51.734674 4.956751 298 33913ft 429kts
22-Jun-17 10:02 51.797325 4.794287 298 33913ft 429kts
22-Jun-17 10:03 51.879534 4.658071 323 33907ft 446kts
22-Jun-17 10:04 51.985589 4.556410 324 33911ft 446kts
22-Jun-17 10:05 52.092297 4.456012 324 33894ft 445kts
22-Jun-17 10:06 52.196982 4.357220 324 33905ft 446kts
22-Jun-17 10:07 52.300579 4.258642 324 33891ft 445kts
22-Jun-17 10:08 52.406274 4.157625 324 33891ft 447kts
22-Jun-17 10:09 52.512152 4.055880 324 34866ft 442kts
22-Jun-17 10:10 52.616954 3.954595 324 35608ft 441kts
22-Jun-17 10:11 52.721550 3.852936 324 35851ft 440kts
22-Jun-17 10:12 52.825985 3.750870 324 35861ft 439kts
22-Jun-17 10:13 52.930515 3.648128 324 35862ft 439kts
22-Jun-17 10:14 53.023524 3.527162 299 35890ft 425kts
22-Jun-17 10:15 53.082407 3.359178 296 35856ft 423kts
22-Jun-17 10:16 53.116718 3.182431 281 35865ft 420kts
22-Jun-17 10:17 53.141930 2.994110 281 35863ft 419kts
22-Jun-17 10:18 53.166509 2.805542 281 35858ft 419kts
22-Jun-17 10:19 53.190764 2.616801 281 35858ft 419kts
22-Jun-17 10:20 53.235576 2.440853 303 35849ft 427kts
22-Jun-17 10:21 53.304478 2.290803 304 35863ft 426kts
22-Jun-17 10:22 53.376920 2.136030 304 35840ft 426kts
22-Jun-17 10:23 53.449452 1.980350 304 35830ft 427kts
22-Jun-17 10:24 53.518016 1.832306 304 35835ft 427kts
22-Jun-17 10:25 53.590167 1.675562 304 35835ft 427kts
22-Jun-17 10:26 53.661909 1.518728 304 35830ft 427kts
22-Jun-17 10:27 53.733659 1.360890 304 35892ft 425kts
22-Jun-17 10:28 53.803393 1.206398 304 35881ft 426kts
22-Jun-17 10:29 53.874657 1.047648 304 35888ft 427kts
22-Jun-17 10:30 53.947151 0.885106 304 35889ft 443kts
22-Jun-17 10:31 54.020214 0.720251 304 35877ft 441kts
22-Jun-17 10:32 54.093127 0.554636 304 35891ft 439kts
22-Jun-17 10:33 54.165857 0.388665 304 35889ft 439kts
22-Jun-17 10:34 54.238094 0.222267 303 35884ft 439kts
22-Jun-17 10:35 54.310163 0.055247 303 35887ft 439kts
22-Jun-17 10:36 54.382076 -0.112527 303 35890ft 439kts
22-Jun-17 10:37 54.453756 -0.280888 303 35887ft 439kts
22-Jun-17 10:38 54.525254 -0.449966 303 35885ft 439kts
22-Jun-17 10:39 54.593427 -0.612265 303 35911ft 437kts
22-Jun-17 10:40 54.664010 -0.781534 302 35919ft 438kts
22-Jun-17 10:41 54.734766 -0.952287 302 35913ft 439kts
22-Jun-17 10:42 54.805228 -1.123489 302 35910ft 439kts
22-Jun-17 10:43 54.875286 -1.294888 302 35885ft 439kts
22-Jun-17 10:44 54.945378 -1.467565 302 35883ft 439kts
22-Jun-17 10:45 55.015313 -1.641068 302 35888ft 439kts
22-Jun-17 10:46 55.073998 -1.823129 294 35891ft 434kts
22-Jun-17 10:47 55.127947 -2.010867 294 35883ft 436kts
22-Jun-17 10:48 55.181673 -2.200199 294 35887ft 437kts
22-Jun-17 10:49 55.235113 -2.390185 294 35887ft 437kts
22-Jun-17 10:50 55.288337 -2.580979 294 35915ft 437kts
22-Jun-17 10:51 55.340823 -2.770811 293 35910ft 437kts
22-Jun-17 10:52 55.393332 -2.962200 293 35916ft 436kts
22-Jun-17 10:53 55.445524 -3.153997 293 35893ft 434kts
22-Jun-17 10:54 55.495301 -3.338474 293 35883ft 437kts
22-Jun-17 10:55 55.546555 -3.531563 293 35886ft 437kts
22-Jun-17 10:56 55.597471 -3.725246 292 35889ft 436kts
22-Jun-17 10:57 55.648075 -3.919340 292 35887ft 436kts
22-Jun-17 10:58 55.698341 -4.113787 292 35918ft 436kts
22-Jun-17 10:59 55.748498 -4.309508 292 35909ft 436kts
22-Jun-17 11:00 55.798333 -4.505694 292 35913ft 436kts
22-Jun-17 11:01 55.847198 -4.699835 291 35915ft 438kts
22-Jun-17 11:02 55.896089 -4.895786 291 35918ft 436kts
22-Jun-17 11:03 55.944971 -5.093396 291 35914ft 436kts
22-Jun-17 11:04 55.993414 -5.291007 291 35912ft 436kts
22-Jun-17 11:05 56.033700 -5.456719 291 35914ft 437kts
22-Jun-17 11:06 56.089334 -5.687696 290 35899ft 436kts
22-Jun-17 11:07 56.136639 -5.885527 290 35885ft 437kts
22-Jun-17 11:08 56.183900 -6.085417 290 35883ft 437kts
22-Jun-17 11:09 56.228524 -6.275934 290 35832ft 436kts
22-Jun-17 11:10 56.275168 -6.476932 290 35840ft 437kts
22-Jun-17 11:11 56.321509 -6.678521 289 35833ft 437kts
22-Jun-17 11:12 56.359817 -6.846741 290 35838ft 437kts
22-Jun-17 11:13 56.405719 -7.049945 290 35833ft 437kts
22-Jun-17 11:14 56.451047 -7.252549 289 35830ft 437kts
22-Jun-17 11:15 56.496189 -7.456294 289 35833ft 437kts
22-Jun-17 11:16 56.541015 -7.660602 289 35835ft 437kts
22-Jun-17 11:17 56.585528 -7.865635 289 35832ft 437kts
22-Jun-17 11:18 56.629602 -8.070553 289 35833ft 437kts
22-Jun-17 11:19 56.673553 -8.276950 289 35834ft 438kts
22-Jun-17 11:20 56.717036 -8.483234 289 35738ft 439kts
22-Jun-17 11:21 56.759556 -8.687023 288 35755ft 439kts
22-Jun-17 11:22 56.802392 -8.894501 288 35759ft 438kts
22-Jun-17 11:23 56.844848 -9.102177 288 35750ft 438kts
22-Jun-17 11:24 56.887181 -9.311434 288 35749ft 439kts
22-Jun-17 11:25 56.928636 -9.520834 286 35754ft 438kts
22-Jun-17 11:26 56.966580 -9.732124 285 35753ft 438kts
22-Jun-17 11:27 57.004244 -9.944524 285 35751ft 438kts
22-Jun-17 11:28 57.041582 -10.157560 285 35752ft 439kts
22-Jun-17 11:29 57.078440 -10.370343 285 35753ft 439kts
22-Jun-17 11:30 57.115168 -10.584269 285 35752ft 439kts
22-Jun-17 11:31 57.151337 -10.797960 284 35751ft 439kts
22-Jun-17 11:32 57.187237 -11.012781 284 35753ft 439kts
22-Jun-17 11:33 57.222817 -11.228294 284 35753ft 439kts
22-Jun-17 11:34 57.257590 -11.441549 284 35751ft 439kts
22-Jun-17 11:35 57.292363 -11.657465 283 35752ft 440kts
22-Jun-17 11:36 57.326833 -11.874332 283 35753ft 440kts
22-Jun-17 11:37 57.360904 -12.091300 283 35738ft 440kts
22-Jun-17 11:38 57.394718 -12.309447 283 35724ft 440kts
22-Jun-17 11:39 57.428041 -12.527247 283 35718ft 441kts
22-Jun-17 11:40 57.461040 -12.745895 282 35727ft 441kts
22-Jun-17 11:41 57.493720 -12.965248 282 35728ft 441kts
22-Jun-17 11:42 57.525973 -13.184660 282 35723ft 441kts
22-Jun-17 11:43 57.557906 -13.404874 282 35723ft 441kts
22-Jun-17 11:44 57.589498 -13.625802 282 35726ft 441kts
22-Jun-17 11:45 57.620662 -13.846918 281 35728ft 441kts
22-Jun-17 11:46 57.651365 -14.067754 281 35724ft 442kts
22-Jun-17 11:47 57.682502 -14.295040 281 35730ft 462kts
22-Jun-17 11:48 57.714240 -14.530091 281 35722ft 466kts
22-Jun-17 11:49 57.745433 -14.764939 280 35725ft 467kts
22-Jun-17 11:50 57.776296 -15.000908 280 35727ft 467kts
22-Jun-17 11:51 57.806597 -15.236322 280 35723ft 467kts
22-Jun-17 11:52 57.836602 -15.473181 280 35724ft 467kts
22-Jun-17 11:53 57.866069 -15.709747 279 35728ft 466kts
22-Jun-17 11:54 57.895192 -15.947490 279 35727ft 466kts
22-Jun-17 11:55 57.924046 -16.187110 280 35727ft 480kts
22-Jun-17 11:56 57.953360 -16.434692 280 35725ft 485kts
22-Jun-17 11:57 57.982180 -16.682764 279 35727ft 486kts
22-Jun-17 11:58 58.010466 -16.930799 279 35722ft 486kts
22-Jun-17 11:59 58.038364 -17.179945 279 35725ft 485kts
22-Jun-17 12:00 58.065672 -17.428578 279 35728ft 485kts
22-Jun-17 12:01 58.092609 -17.678714 278 35727ft 485kts
22-Jun-17 12:02 58.119047 -17.927943 278 35725ft 485kts
22-Jun-17 12:03 58.145008 -18.178667 278 35724ft 485kts
22-Jun-17 12:04 58.170387 -18.428993 278 35725ft 485kts
22-Jun-17 12:05 58.195024 -18.677155 277 35726ft 488kts
22-Jun-17 12:06 58.219596 -18.930014 277 35449ft 487kts
22-Jun-17 12:07 58.243553 -19.181973 277 35434ft 488kts
22-Jun-17 12:08 58.267137 -19.435577 277 35425ft 488kts
22-Jun-17 12:09 58.290157 -19.688825 276 35425ft 487kts
22-Jun-17 12:10 58.312650 -19.942248 276 35429ft 487kts
22-Jun-17 12:11 58.334695 -20.196485 276 35429ft 487kts
22-Jun-17 12:12 58.356199 -20.450675 276 35429ft 487kts
22-Jun-17 12:13 58.376873 -20.701013 276 35429ft 487kts
22-Jun-17 12:14 58.397414 -20.956322 276 35428ft 487kts
22-Jun-17 12:15 58.417380 -21.210941 276 35427ft 487kts
22-Jun-17 12:16 58.436858 -21.466093 276 35427ft 487kts
22-Jun-17 12:17 58.455874 -21.722154 275 35427ft 487kts
22-Jun-17 12:18 58.474321 -21.977715 275 35428ft 487kts
22-Jun-17 12:19 58.492240 -22.233258 275 35427ft 487kts
22-Jun-17 12:20 58.509692 -22.489537 275 35428ft 486kts
22-Jun-17 12:21 58.526604 -22.745753 274 35429ft 486kts
22-Jun-17 12:22 58.542998 -23.002077 274 35429ft 486kts
22-Jun-17 12:23 58.558928 -23.259368 274 35428ft 486kts
22-Jun-17 12:24 58.574312 -23.516342 274 35428ft 486kts
22-Jun-17 12:25 58.589146 -23.772974 273 35427ft 486kts
22-Jun-17 12:26 58.603426 -24.029000 273 35428ft 486kts
22-Jun-17 12:27 58.617320 -24.287545 273 35428ft 486kts
22-Jun-17 12:28 58.630507 -24.542580 273 35429ft 486kts
22-Jun-17 12:29 58.643321 -24.800559 272 35429ft 485kts
22-Jun-17 12:30 58.655608 -25.058472 272 35428ft 486kts
22-Jun-17 12:31 58.667385 -25.316681 272 35429ft 486kts
22-Jun-17 12:32 58.678631 -25.574738 272 35428ft 486kts
22-Jun-17 12:33 58.689362 -25.833042 271 35428ft 486kts
22-Jun-17 12:34 58.699573 -26.091384 271 35428ft 486kts
22-Jun-17 12:35 58.709293 -26.350589 271 35428ft 486kts
22-Jun-17 12:36 58.718461 -26.609060 271 35428ft 486kts
22-Jun-17 12:37 58.727124 -26.868015 271 35429ft 485kts
22-Jun-17 12:38 58.735273 -27.127315 271 35428ft 485kts
22-Jun-17 12:39 58.742881 -27.386008 271 35428ft 485kts
22-Jun-17 12:40 58.749976 -27.645003 271 35429ft 485kts
22-Jun-17 12:41 58.756546 -27.903845 270 35429ft 485kts
22-Jun-17 12:42 58.762606 -28.163219 270 35428ft 485kts
22-Jun-17 12:43 58.768142 -28.422451 270 35428ft 485kts
22-Jun-17 12:44 58.773123 -28.679802 269 35429ft 485kts
22-Jun-17 12:45 58.777615 -28.938875 269 35428ft 485kts
22-Jun-17 12:46 58.781593 -29.198306 269 35428ft 485kts
22-Jun-17 12:47 58.785055 -29.458150 269 35428ft 485kts
22-Jun-17 12:48 58.787986 -29.717010 268 35429ft 485kts
22-Jun-17 12:49 58.790407 -29.977141 268 35428ft 485kts
22-Jun-17 12:50 58.792273 -30.232485 268 35428ft 485kts
22-Jun-17 12:51 58.793654 -30.492187 268 35429ft 485kts
22-Jun-17 12:52 58.794518 -30.752026 267 35428ft 485kts
22-Jun-17 12:53 58.794855 -31.011395 267 35428ft 485kts
22-Jun-17 12:54 58.794672 -31.270927 267 35429ft 485kts
22-Jun-17 12:55 58.793966 -31.530736 267 35429ft 485kts
22-Jun-17 12:56 58.792746 -31.790081 266 35428ft 484kts
22-Jun-17 12:57 58.791002 -32.049388 266 35428ft 485kts
22-Jun-17 12:58 58.788738 -32.308494 267 35428ft 485kts
22-Jun-17 12:59 58.785959 -32.567087 267 35657ft 484kts
22-Jun-17 13:00 58.782658 -32.826770 266 35868ft 483kts
22-Jun-17 13:01 58.778855 -33.084510 266 35866ft 483kts
22-Jun-17 13:02 58.774519 -33.343368 266 35858ft 483kts
22-Jun-17 13:03 58.769685 -33.601161 266 35858ft 483kts
22-Jun-17 13:04 58.764343 -33.858840 265 35861ft 482kts
22-Jun-17 13:05 58.758464 -34.117202 265 35862ft 483kts
22-Jun-17 13:06 58.752086 -34.374742 265 35860ft 483kts
22-Jun-17 13:07 58.745185 -34.632548 265 35860ft 483kts
22-Jun-17 13:08 58.737771 -34.890456 264 35861ft 483kts
22-Jun-17 13:09 58.729862 -35.147418 264 35860ft 483kts
22-Jun-17 13:10 58.721419 -35.404924 264 35860ft 483kts
22-Jun-17 13:11 58.712462 -35.662363 263 35861ft 483kts
22-Jun-17 13:12 58.703013 -35.919225 263 35860ft 483kts
22-Jun-17 13:13 58.693013 -36.176823 263 35861ft 483kts
22-Jun-17 13:14 58.682552 -36.432975 263 35860ft 483kts
22-Jun-17 13:15 58.671546 -36.689907 263 35861ft 482kts
22-Jun-17 13:16 58.660042 -36.946415 263 35860ft 482kts
22-Jun-17 13:17 58.648053 -37.202110 263 35860ft 482kts
22-Jun-17 13:18 58.635504 -37.458719 263 35860ft 482kts
22-Jun-17 13:19 58.622502 -37.714126 262 35860ft 482kts
22-Jun-17 13:20 58.608969 -37.969787 262 35860ft 482kts
22-Jun-17 13:21 58.594897 -38.225741 262 35861ft 482kts
22-Jun-17 13:22 58.580386 -38.480304 262 35860ft 482kts
22-Jun-17 13:23 58.565709 -38.729167 261 35860ft 482kts
22-Jun-17 13:23 58.552782 -38.941670 261 35860ft 482kts
22-Jun-17 13:25 58.536801 -39.196504 261 35861ft 482kts
22-Jun-17 13:26 58.520336 -39.450782 261 35861ft 482kts
22-Jun-17 13:27 58.503402 -39.704423 260 35861ft 482kts
22-Jun-17 13:28 58.486110 -39.955748 261 35862ft 477kts
22-Jun-17 13:29 58.468298 -40.207246 261 35862ft 477kts
22-Jun-17 13:30 58.450009 -40.458229 261 35860ft 478kts
22-Jun-17 13:31 58.431234 -40.708974 260 35860ft 478kts
22-Jun-17 13:32 58.411971 -40.959426 260 35863ft 479kts
22-Jun-17 13:33 58.392278 -41.208835 260 35863ft 477kts
22-Jun-17 13:34 58.372039 -41.458711 260 35860ft 477kts
22-Jun-17 13:35 58.351500 -41.706134 259 35859ft 477kts
22-Jun-17 13:36 58.330341 -41.954962 259 35860ft 477kts
22-Jun-17 13:37 58.308621 -42.204305 259 35861ft 477kts
22-Jun-17 13:38 58.286475 -42.452647 259 35859ft 477kts
22-Jun-17 13:39 58.264131 -42.697739 258 35862ft 476kts
22-Jun-17 13:40 58.241038 -42.945480 258 35862ft 477kts
22-Jun-17 13:41 58.217497 -43.192503 258 35860ft 477kts
22-Jun-17 13:42 58.193424 -43.439766 258 35859ft 477kts
22-Jun-17 13:43 58.168919 -43.686278 257 35860ft 477kts
22-Jun-17 13:44 58.143953 -43.932364 257 35860ft 477kts
22-Jun-17 13:45 58.118428 -44.178847 257 35862ft 476kts
22-Jun-17 13:46 58.092548 -44.423836 257 35858ft 477kts
22-Jun-17 13:47 58.066085 -44.669537 256 35859ft 477kts
22-Jun-17 13:48 58.039241 -44.914125 256 35861ft 477kts
22-Jun-17 13:49 58.011901 -45.158488 256 35861ft 476kts
22-Jun-17 13:50 57.984175 -45.401775 256 35859ft 477kts
22-Jun-17 13:51 57.955921 -45.645236 256 35859ft 476kts
22-Jun-17 13:52 57.927241 -45.888089 256 35860ft 476kts
22-Jun-17 13:53 57.898060 -46.130725 256 35861ft 476kts
22-Jun-17 13:54 57.868683 -46.369795 256 35860ft 476kts
22-Jun-17 13:55 57.838591 -46.611599 256 35861ft 476kts
22-Jun-17 13:56 57.808089 -46.852774 255 35860ft 476kts
22-Jun-17 13:57 57.777107 -47.093600 255 35860ft 476kts
22-Jun-17 13:58 57.745722 -47.333589 255 35861ft 476kts
22-Jun-17 13:59 57.713820 -47.573637 255 35861ft 476kts
22-Jun-17 14:00 57.681425 -47.813690 254 35860ft 476kts
22-Jun-17 14:01 57.648656 -48.052613 254 35861ft 476kts
22-Jun-17 14:02 57.615479 -48.290793 254 35861ft 475kts
22-Jun-17 14:03 57.581853 -48.528553 254 35860ft 475kts
22-Jun-17 14:04 57.548191 -48.763151 253 35860ft 475kts
22-Jun-17 14:05 57.513719 -48.999786 253 35860ft 475kts
22-Jun-17 14:06 57.478768 -49.236202 253 35860ft 475kts
22-Jun-17 14:07 57.443303 -49.472632 253 35860ft 475kts
22-Jun-17 14:08 57.407485 -49.708069 252 35861ft 475kts
22-Jun-17 14:09 57.371818 -49.939311 252 35861ft 475kts
22-Jun-17 14:10 57.335497 -50.172828 249 35855ft 460kts
22-Jun-17 14:11 57.299782 -50.396666 249 35859ft 461kts
22-Jun-17 14:12 57.263636 -50.621654 249 35860ft 457kts
22-Jun-17 14:13 57.227164 -50.845886 248 35861ft 456kts
22-Jun-17 14:14 57.190287 -51.069536 248 35794ft 457kts
22-Jun-17 14:15 57.152977 -51.292981 248 35813ft 456kts
22-Jun-17 14:16 57.115220 -51.516162 249 35803ft 466kts
22-Jun-17 14:17 57.076563 -51.742099 248 35808ft 461kts
22-Jun-17 14:18 57.037730 -51.966113 248 35806ft 462kts
22-Jun-17 14:19 56.998378 -52.190280 248 35805ft 462kts
22-Jun-17 14:20 56.958693 -52.413602 248 35804ft 462kts
22-Jun-17 14:21 56.918555 -52.636754 248 35804ft 461kts
22-Jun-17 14:22 56.878137 -52.858280 247 35816ft 462kts
22-Jun-17 14:23 56.837328 -53.079730 247 35808ft 461kts
22-Jun-17 14:24 56.796581 -53.298365 247 35804ft 461kts
22-Jun-17 14:25 56.755003 -53.518898 247 35806ft 461kts
22-Jun-17 14:26 56.713153 -53.738456 247 35807ft 460kts
22-Jun-17 14:27 56.670905 -53.957517 247 35807ft 460kts
22-Jun-17 14:28 56.628345 -54.175640 247 35802ft 461kts
22-Jun-17 14:29 56.585270 -54.394016 247 35803ft 459kts
22-Jun-17 14:30 56.541851 -54.611670 247 35807ft 459kts
22-Jun-17 14:31 56.498190 -54.828292 246 35808ft 459kts
22-Jun-17 14:32 56.454001 -55.045020 246 35806ft 459kts
22-Jun-17 14:33 56.409590 -55.260486 246 35806ft 459kts
22-Jun-17 14:34 56.364902 -55.474956 246 35798ft 460kts
22-Jun-17 14:35 56.319657 -55.689909 245 35804ft 457kts
22-Jun-17 14:36 56.274224 -55.903553 245 35808ft 458kts
22-Jun-17 14:37 56.228455 -56.116422 245 35807ft 458kts
22-Jun-17 14:38 56.182301 -56.328876 245 35805ft 458kts
22-Jun-17 14:39 56.136277 -56.538584 245 35804ft 457kts
22-Jun-17 14:40 56.089740 -56.748602 244 35803ft 457kts
22-Jun-17 14:41 56.042545 -56.959677 243 35809ft 456kts
22-Jun-17 14:42 55.991568 -57.166113 242 35872ft 457kts
22-Jun-17 14:43 55.939504 -57.371472 242 35796ft 456kts
22-Jun-17 14:44 55.887105 -57.575935 242 35888ft 456kts
22-Jun-17 14:45 55.834391 -57.779744 241 35894ft 454kts
22-Jun-17 14:46 55.781182 -57.983810 241 35889ft 454kts
22-Jun-17 14:47 55.727973 -58.186004 241 35896ft 456kts
22-Jun-17 14:48 55.674318 -58.388126 241 35889ft 454kts
22-Jun-17 14:49 55.620225 -58.590073 241 35886ft 454kts
22-Jun-17 14:50 55.566958 -58.787340 241 35887ft 453kts
22-Jun-17 14:51 55.512341 -58.987722 241 35888ft 454kts
22-Jun-17 14:52 55.457483 -59.187222 241 35888ft 454kts
22-Jun-17 14:53 55.402127 -59.386790 241 35888ft 453kts
22-Jun-17 14:54 55.347513 -59.582011 241 35887ft 453kts
22-Jun-17 14:55 55.292014 -59.778847 240 35991ft 453kts
22-Jun-17 14:56 55.235980 -59.975796 240 35997ft 452kts
22-Jun-17 14:57 55.179581 -60.172337 240 35996ft 452kts
22-Jun-17 14:58 55.122907 -60.368181 240 35995ft 452kts
22-Jun-17 14:59 55.065863 -60.563661 240 35994ft 452kts
22-Jun-17 15:00 55.008776 -60.757796 239 35994ft 451kts
22-Jun-17 15:01 54.951151 -60.952052 239 35994ft 452kts
22-Jun-17 15:02 54.893656 -61.144235 239 35996ft 452kts
22-Jun-17 15:03 54.835268 -61.337413 239 35995ft 451kts
22-Jun-17 15:04 54.776928 -61.529289 239 35995ft 451kts
22-Jun-17 15:05 54.718362 -61.720480 238 35996ft 451kts
22-Jun-17 15:06 54.659379 -61.911455 238 35996ft 451kts
22-Jun-17 15:07 54.600094 -62.101826 238 35995ft 451kts
22-Jun-17 15:08 54.540527 -62.291584 238 35996ft 451kts
22-Jun-17 15:09 54.482708 -62.474356 238 35894ft 452kts
22-Jun-17 15:10 54.422725 -62.662519 237 35747ft 451kts
22-Jun-17 15:11 54.362210 -62.850935 239 35752ft 446kts
22-Jun-17 15:12 54.303505 -63.032313 240 35756ft 441kts
22-Jun-17 15:13 54.244398 -63.213574 240 35753ft 437kts
22-Jun-17 15:14 54.184766 -63.395038 240 35751ft 437kts
22-Jun-17 15:15 54.125032 -63.575469 240 35750ft 438kts
22-Jun-17 15:16 54.065059 -63.755406 240 35752ft 438kts
22-Jun-17 15:17 54.004800 -63.934779 240 35752ft 438kts
22-Jun-17 15:18 53.944292 -64.113567 240 35751ft 438kts
22-Jun-17 15:19 53.883311 -64.292245 240 35753ft 438kts
22-Jun-17 15:20 53.822234 -64.469858 240 35752ft 438kts
22-Jun-17 15:21 53.760893 -64.647197 240 35752ft 438kts
22-Jun-17 15:22 53.699305 -64.824136 239 35753ft 438kts
22-Jun-17 15:23 53.637272 -65.000938 239 35753ft 438kts
22-Jun-17 15:24 53.575093 -65.176894 239 35752ft 438kts
22-Jun-17 15:25 53.512609 -65.352467 239 35751ft 438kts
22-Jun-17 15:26 53.451738 -65.522323 239 35752ft 438kts
22-Jun-17 15:27 53.389056 -65.696077 238 35753ft 439kts
22-Jun-17 15:28 53.325748 -65.870394 238 35753ft 439kts
22-Jun-17 15:29 53.262098 -66.044344 238 35753ft 439kts
22-Jun-17 15:30 53.198373 -66.217294 238 35752ft 439kts
22-Jun-17 15:31 53.134372 -66.389800 238 35751ft 439kts
22-Jun-17 15:32 53.070009 -66.562098 238 35751ft 439kts
22-Jun-17 15:33 53.005445 -66.733859 238 35752ft 439kts
22-Jun-17 15:34 52.942130 -66.905776 240 35751ft 439kts
22-Jun-17 15:35 52.881121 -67.079898 240 35752ft 439kts
22-Jun-17 15:36 52.819662 -67.254398 240 35752ft 439kts
22-Jun-17 15:37 52.758099 -67.428186 240 35752ft 439kts
22-Jun-17 15:38 52.696336 -67.601341 240 35752ft 439kts
22-Jun-17 15:39 52.634970 -67.772337 239 35752ft 439kts
22-Jun-17 15:40 52.572758 -67.944403 239 35752ft 440kts
22-Jun-17 15:41 52.509962 -68.116874 239 35752ft 440kts
22-Jun-17 15:42 52.447270 -68.287890 239 35752ft 440kts
22-Jun-17 15:43 52.384055 -68.459168 239 35752ft 440kts
22-Jun-17 15:44 52.320784 -68.629445 239 35881ft 442kts
22-Jun-17 15:45 52.258476 -68.796150 238 36725ft 441kts
22-Jun-17 15:46 52.194380 -68.966372 238 37384ft 442kts
22-Jun-17 15:47 52.129867 -69.136559 238 37752ft 443kts
22-Jun-17 15:48 52.075879 -69.278102 238 37759ft 442kts
22-Jun-17 15:49 52.000026 -69.475658 238 37750ft 443kts
22-Jun-17 15:50 51.945590 -69.616496 238 37956ft 444kts
22-Jun-17 15:51 51.883483 -69.776211 237 38002ft 443kts
22-Jun-17 15:52 51.818795 -69.938674 237 38003ft 444kts
22-Jun-17 15:53 51.752578 -70.106776 238 38000ft 444kts
22-Jun-17 15:54 51.686472 -70.273808 238 37999ft 444kts
22-Jun-17 15:55 51.619881 -70.440981 238 37998ft 444kts
22-Jun-17 15:56 51.553082 -70.607603 238 37996ft 444kts
22-Jun-17 15:57 51.487780 -70.769577 237 38001ft 444kts
22-Jun-17 15:58 51.420622 -70.934994 237 38000ft 444kts
22-Jun-17 15:59 51.353253 -71.099525 238 38375ft 421kts
22-Jun-17 16:00 51.290941 -71.251355 239 37275ft 398kts
22-Jun-17 16:01 51.228320 -71.402839 239 36257ft 420kts
22-Jun-17 16:02 51.164677 -71.555839 239 36006ft 420kts
22-Jun-17 16:03 51.100436 -71.709416 238 35998ft 418kts
22-Jun-17 16:04 51.034173 -71.860788 237 35993ft 418kts
22-Jun-17 16:05 50.967119 -72.010964 237 35993ft 419kts
22-Jun-17 16:06 50.900041 -72.160247 237 35995ft 419kts
22-Jun-17 16:07 50.833073 -72.308126 237 35996ft 419kts
22-Jun-17 16:08 50.765265 -72.457343 237 35995ft 419kts
22-Jun-17 16:09 50.697280 -72.606106 237 35994ft 419kts
22-Jun-17 16:10 50.629387 -72.753970 236 35995ft 419kts
22-Jun-17 16:11 50.560884 -72.902263 236 35994ft 420kts
22-Jun-17 16:12 50.493802 -73.046561 236 35995ft 420kts
22-Jun-17 16:13 50.425181 -73.193394 236 35995ft 419kts
22-Jun-17 16:14 50.356239 -73.340088 236 35995ft 420kts
22-Jun-17 16:15 50.286936 -73.486739 236 35994ft 420kts
22-Jun-17 16:16 50.217477 -73.632901 236 35994ft 420kts
22-Jun-17 16:17 50.148383 -73.777622 236 35996ft 424kts
22-Jun-17 16:18 50.076687 -73.926814 236 35993ft 428kts
22-Jun-17 16:19 50.005165 -74.074832 236 35994ft 430kts
22-Jun-17 16:20 49.933593 -74.222117 236 35995ft 430kts
22-Jun-17 16:21 49.861545 -74.369282 236 35995ft 430kts
22-Jun-17 16:22 49.776523 -74.495363 206 36000ft 450kts
22-Jun-17 16:23 49.655240 -74.547401 200 35997ft 458kts
22-Jun-17 16:24 49.531873 -74.592442 200 35992ft 457kts
22-Jun-17 16:25 49.408600 -74.636786 200 35993ft 457kts
22-Jun-17 16:26 49.285599 -74.680909 200 35994ft 460kts
22-Jun-17 16:27 49.163263 -74.724491 200 35998ft 461kts
22-Jun-17 16:28 49.039217 -74.768421 200 35997ft 460kts
22-Jun-17 16:29 48.915471 -74.812007 201 35994ft 465kts
22-Jun-17 16:30 48.790881 -74.855629 201 35998ft 462kts
22-Jun-17 16:31 48.666364 -74.899052 201 35996ft 462kts
22-Jun-17 16:32 48.541578 -74.942355 201 35995ft 463kts
22-Jun-17 16:33 48.417045 -74.985353 201 35996ft 463kts
22-Jun-17 16:34 48.292536 -75.028128 201 35995ft 463kts
22-Jun-17 16:35 48.167546 -75.070854 201 35995ft 463kts
22-Jun-17 16:36 48.042803 -75.113281 201 35995ft 463kts
22-Jun-17 16:37 47.917880 -75.155574 201 35995ft 466kts
22-Jun-17 16:38 47.793479 -75.197385 201 35999ft 464kts
22-Jun-17 16:39 47.668513 -75.239253 201 35995ft 464kts
22-Jun-17 16:40 47.543846 -75.280825 201 35994ft 464kts
22-Jun-17 16:41 47.419013 -75.322254 201 35995ft 465kts
22-Jun-17 16:42 47.293908 -75.363568 201 35994ft 464kts
22-Jun-17 16:43 47.169194 -75.404555 201 35994ft 464kts
22-Jun-17 16:44 47.044336 -75.445393 201 35994ft 464kts
22-Jun-17 16:45 46.919012 -75.486178 201 35992ft 464kts
22-Jun-17 16:46 46.797182 -75.525578 201 35992ft 465kts
22-Jun-17 16:47 46.672184 -75.565879 201 35995ft 465kts
22-Jun-17 16:48 46.546855 -75.606100 201 35994ft 465kts
22-Jun-17 16:49 46.421559 -75.646120 201 35993ft 465kts
22-Jun-17 16:50 46.296426 -75.686021 200 35999ft 466kts
22-Jun-17 16:51 46.170672 -75.725837 200 35994ft 468kts
22-Jun-17 16:52 46.045026 -75.765401 200 35995ft 467kts
22-Jun-17 16:53 45.929322 -75.804463 210 35989ft 455kts
22-Jun-17 16:54 45.853575 -75.910903 238 35996ft 427kts
22-Jun-17 16:55 45.787848 -76.044817 240 35999ft 425kts
22-Jun-17 16:56 45.723126 -76.178307 235 35989ft 409kts
22-Jun-17 16:57 45.647445 -76.280268 235 36004ft 415kts
22-Jun-17 16:58 45.576408 -76.405402 237 35994ft 414kts
22-Jun-17 16:59 45.504486 -76.536771 238 35395ft 429kts
22-Jun-17 17:00 45.434173 -76.667641 237 34073ft 420kts
22-Jun-17 17:01 45.365119 -76.798948 237 32831ft 414kts
22-Jun-17 17:02 45.298048 -76.928526 237 31578ft 408kts
22-Jun-17 17:03 45.232567 -77.057102 238 30310ft 402kts
22-Jun-17 17:04 45.168483 -77.184679 238 29041ft 395kts
22-Jun-17 17:05 45.106491 -77.308624 238 27756ft 387kts
22-Jun-17 17:06 45.045652 -77.430796 238 26464ft 379kts
22-Jun-17 17:07 44.986693 -77.549499 238 25141ft 361kts
22-Jun-17 17:08 44.931230 -77.661163 238 23819ft 345kts
22-Jun-17 17:09 44.880006 -77.763971 238 22588ft 331kts
22-Jun-17 17:10 44.829980 -77.863205 238 21218ft 320kts
22-Jun-17 17:11 44.779341 -77.963565 238 19237ft 313kts
22-Jun-17 17:12 44.729934 -78.061480 238 17271ft 307kts
22-Jun-17 17:13 44.681553 -78.157494 239 15298ft 302kts
22-Jun-17 17:14 44.636197 -78.254751 241 13310ft 298kts
22-Jun-17 17:15 44.592371 -78.350596 243 11307ft 289kts
22-Jun-17 17:16 44.552982 -78.444099 243 9284ft 273kts
22-Jun-17 17:17 44.515873 -78.532845 243 7425ft 258kts
22-Jun-17 17:18 44.480358 -78.614914 239 5888ft 242kts
22-Jun-17 17:19 44.443903 -78.689120 237 4431ft 237kts
22-Jun-17 17:20 44.405891 -78.765070 236 3297ft 242kts
22-Jun-17 17:21 44.363354 -78.857538 236 2269ft 230kts
22-Jun-17 17:22 44.302243 -78.997870 234 2103ft 216kts
22-Jun-17 17:23 44.225628 -79.163668 232 2104ft 216kts
22-Jun-17 17:24 44.143225 -79.316416 225 2038ft 214kts
22-Jun-17 17:25 44.050380 -79.456464 227 1903ft 217kts
22-Jun-17 17:26 43.948242 -79.601834 221 1789ft 186kts
22-Jun-17 17:27 43.880671 -79.683507 214 1768ft 169kts
22-Jun-17 17:28 43.826685 -79.720109 201 1769ft 168kts
22-Jun-17 17:29 43.783178 -79.741897 192 1769ft 166kts
22-Jun-17 17:30 43.749740 -79.717965 135 1772ft 145kts
22-Jun-17 17:31 43.721484 -79.680423 136 1320ft 137kts
22-Jun-17 17:32 43.693818 -79.644874 136 636ft 133kts
22-Jun-17 17:33 43.680423 -79.627114 129 573ft 65kts
22-Jun-17 17:34 43.678897 -79.620088 62 575ft 0kts
22-Jun-17 17:35 43.679107 -79.619514 65 575ft 1kts
22-Jun-17 17:36 43.679439 -79.618039 87 574ft 0kts
22-Jun-17 17:37 43.679439 -79.618039 87 574ft 0kts

Navigation Log

Ident Type
Flight plan parsing failed, navigation log unavailable